sensor_id;sensor_type;location;lat;lon;timestamp;pressure;altitude;pressure_sealevel;temperature;humidity
49377;BME280;35253;34.688;33.040;2023-04-08T00:01:13;101077.66;;;17.01;100.00
49377;BME280;35253;34.688;33.040;2023-04-08T00:03:38;101080.22;;;16.91;100.00
49377;BME280;35253;34.688;33.040;2023-04-08T00:06:04;101067.38;;;17.06;100.00
49377;BME280;35253;34.688;33.040;2023-04-08T00:08:31;101074.25;;;17.32;100.00
49377;BME280;35253;34.688;33.040;2023-04-08T00:10:56;101069.72;;;17.33;100.00
49377;BME280;35253;34.688;33.040;2023-04-08T00:13:22;101064.91;;;17.36;100.00
49377;BME280;35253;34.688;33.040;2023-04-08T00:15:48;101061.00;;;17.40;100.00
49377;BME280;35253;34.688;33.040;2023-04-08T00:18:15;101058.03;;;17.54;100.00
49377;BME280;35253;34.688;33.040;2023-04-08T00:20:42;101066.84;;;17.68;100.00
49377;BME280;35253;34.688;33.040;2023-04-08T00:23:08;101083.03;;;17.34;100.00
49377;BME280;35253;34.688;33.040;2023-04-08T00:25:33;101072.16;;;17.36;100.00
49377;BME280;35253;34.688;33.040;2023-04-08T00:27:59;101067.81;;;17.55;100.00
49377;BME280;35253;34.688;33.040;2023-04-08T00:30:25;101055.81;;;17.48;100.00
49377;BME280;35253;34.688;33.040;2023-04-08T00:32:52;101054.13;;;17.59;100.00
49377;BME280;35253;34.688;33.040;2023-04-08T00:35:18;101058.19;;;17.20;100.00
49377;BME280;35253;34.688;33.040;2023-04-08T00:37:44;101058.28;;;17.29;100.00
49377;BME280;35253;34.688;33.040;2023-04-08T00:40:10;101065.16;;;17.44;100.00
49377;BME280;35253;34.688;33.040;2023-04-08T00:42:37;101082.06;;;17.13;100.00
49377;BME280;35253;34.688;33.040;2023-04-08T00:45:03;101084.50;;;17.38;100.00
49377;BME280;35253;34.688;33.040;2023-04-08T00:47:30;101103.66;;;17.24;100.00
49377;BME280;35253;34.688;33.040;2023-04-08T00:49:55;101086.97;;;17.30;100.00
49377;BME280;35253;34.688;33.040;2023-04-08T00:52:21;101098.63;;;17.42;100.00
49377;BME280;35253;34.688;33.040;2023-04-08T00:54:47;101091.34;;;17.42;100.00
49377;BME280;35253;34.688;33.040;2023-04-08T00:57:13;101094.31;;;17.50;100.00
49377;BME280;35253;34.688;33.040;2023-04-08T00:59:39;101095.50;;;17.57;100.00
49377;BME280;35253;34.688;33.040;2023-04-08T01:02:14;101077.38;;;17.60;100.00
49377;BME280;35253;34.688;33.040;2023-04-08T01:04:51;101077.00;;;17.53;100.00
49377;BME280;35253;34.688;33.040;2023-04-08T01:07:25;101113.69;;;17.11;100.00
49377;BME280;35253;34.688;33.040;2023-04-08T01:09:55;101113.31;;;17.04;100.00
49377;BME280;35253;34.688;33.040;2023-04-08T01:12:27;101110.47;;;16.84;100.00
49377;BME280;35253;34.688;33.040;2023-04-08T01:15:03;101110.94;;;16.78;100.00
49377;BME280;35253;34.688;33.040;2023-04-08T01:17:31;101141.00;;;16.60;100.00
49377;BME280;35253;34.688;33.040;2023-04-08T01:19:59;101137.09;;;16.64;100.00
49377;BME280;35253;34.688;33.040;2023-04-08T01:22:35;101118.19;;;16.88;100.00
49377;BME280;35253;34.688;33.040;2023-04-08T01:25:05;101104.59;;;17.01;100.00
49377;BME280;35253;34.688;33.040;2023-04-08T01:27:33;101098.25;;;17.02;100.00
49377;BME280;35253;34.688;33.040;2023-04-08T01:30:02;101094.31;;;17.06;100.00
49377;BME280;35253;34.688;33.040;2023-04-08T01:32:29;101093.09;;;17.21;100.00
49377;BME280;35253;34.688;33.040;2023-04-08T01:34:57;101102.78;;;17.12;100.00
49377;BME280;35253;34.688;33.040;2023-04-08T01:37:24;101127.50;;;17.18;100.00
49377;BME280;35253;34.688;33.040;2023-04-08T01:39:53;101137.19;;;17.31;100.00
49377;BME280;35253;34.688;33.040;2023-04-08T01:42:22;101140.00;;;17.30;100.00
49377;BME280;35253;34.688;33.040;2023-04-08T01:44:50;101144.50;;;16.85;100.00
49377;BME280;35253;34.688;33.040;2023-04-08T01:47:16;101158.94;;;16.84;100.00
49377;BME280;35253;34.688;33.040;2023-04-08T01:49:44;101165.81;;;16.88;100.00
49377;BME280;35253;34.688;33.040;2023-04-08T01:52:10;101128.84;;;17.01;100.00
49377;BME280;35253;34.688;33.040;2023-04-08T01:54:37;101137.91;;;17.00;100.00
49377;BME280;35253;34.688;33.040;2023-04-08T01:57:07;101123.22;;;16.93;100.00
49377;BME280;35253;34.688;33.040;2023-04-08T01:59:37;101117.09;;;17.13;100.00
49377;BME280;35253;34.688;33.040;2023-04-08T02:02:06;101112.94;;;17.20;100.00
49377;BME280;35253;34.688;33.040;2023-04-08T02:04:34;101130.56;;;17.13;100.00
49377;BME280;35253;34.688;33.040;2023-04-08T02:07:01;101114.91;;;17.18;100.00
49377;BME280;35253;34.688;33.040;2023-04-08T02:09:27;101121.63;;;17.12;100.00
49377;BME280;35253;34.688;33.040;2023-04-08T02:11:53;101149.47;;;17.24;100.00
49377;BME280;35253;34.688;33.040;2023-04-08T02:14:18;101133.00;;;17.16;100.00
49377;BME280;35253;34.688;33.040;2023-04-08T02:17:11;101146.25;;;17.19;100.00
49377;BME280;35253;34.688;33.040;2023-04-08T02:20:07;101151.41;;;17.11;100.00
49377;BME280;35253;34.688;33.040;2023-04-08T02:22:43;101160.69;;;16.96;100.00
49377;BME280;35253;34.688;33.040;2023-04-08T02:25:13;101144.66;;;17.17;100.00
49377;BME280;35253;34.688;33.040;2023-04-08T02:27:40;101137.94;;;17.22;100.00
49377;BME280;35253;34.688;33.040;2023-04-08T02:30:07;101130.81;;;17.10;100.00
49377;BME280;35253;34.688;33.040;2023-04-08T02:32:35;101136.94;;;17.12;100.00
49377;BME280;35253;34.688;33.040;2023-04-08T02:35:02;101154.56;;;17.16;100.00
49377;BME280;35253;34.688;33.040;2023-04-08T02:37:29;101147.72;;;17.01;100.00
49377;BME280;35253;34.688;33.040;2023-04-08T02:39:55;101144.41;;;16.97;100.00
49377;BME280;35253;34.688;33.040;2023-04-08T02:42:20;101147.97;;;17.09;100.00
49377;BME280;35253;34.688;33.040;2023-04-08T02:44:46;101167.31;;;17.14;100.00
49377;BME280;35253;34.688;33.040;2023-04-08T02:47:12;101175.66;;;17.22;100.00
49377;BME280;35253;34.688;33.040;2023-04-08T02:49:38;101189.59;;;17.05;100.00
49377;BME280;35253;34.688;33.040;2023-04-08T02:52:03;101198.53;;;17.17;100.00
49377;BME280;35253;34.688;33.040;2023-04-08T02:54:29;101196.84;;;17.16;100.00
49377;BME280;35253;34.688;33.040;2023-04-08T02:56:55;101181.28;;;17.19;100.00
49377;BME280;35253;34.688;33.040;2023-04-08T02:59:21;101161.19;;;17.01;100.00
49377;BME280;35253;34.688;33.040;2023-04-08T03:01:46;101155.53;;;17.04;100.00
49377;BME280;35253;34.688;33.040;2023-04-08T03:04:12;101184.22;;;17.05;100.00
49377;BME280;35253;34.688;33.040;2023-04-08T03:06:38;101202.31;;;17.03;100.00
49377;BME280;35253;34.688;33.040;2023-04-08T03:09:04;101203.78;;;17.07;100.00
49377;BME280;35253;34.688;33.040;2023-04-08T03:11:32;101193.16;;;17.17;100.00
49377;BME280;35253;34.688;33.040;2023-04-08T03:13:58;101189.38;;;17.19;100.00
49377;BME280;35253;34.688;33.040;2023-04-08T03:16:24;101193.25;;;17.04;100.00
49377;BME280;35253;34.688;33.040;2023-04-08T03:18:50;101196.09;;;17.25;100.00
49377;BME280;35253;34.688;33.040;2023-04-08T03:21:16;101193.78;;;17.31;100.00
49377;BME280;35253;34.688;33.040;2023-04-08T03:23:42;101218.50;;;17.14;100.00
49377;BME280;35253;34.688;33.040;2023-04-08T03:26:08;101225.50;;;17.17;100.00
49377;BME280;35253;34.688;33.040;2023-04-08T03:28:34;101229.28;;;17.14;100.00
49377;BME280;35253;34.688;33.040;2023-04-08T03:31:00;101228.28;;;17.04;100.00
49377;BME280;35253;34.688;33.040;2023-04-08T03:33:27;101236.28;;;17.17;100.00
49377;BME280;35253;34.688;33.040;2023-04-08T03:35:53;101225.38;;;17.29;100.00
49377;BME280;35253;34.688;33.040;2023-04-08T03:38:19;101234.94;;;17.22;100.00
49377;BME280;35253;34.688;33.040;2023-04-08T03:40:44;101215.81;;;17.14;100.00
49377;BME280;35253;34.688;33.040;2023-04-08T03:43:10;101212.63;;;17.09;100.00
49377;BME280;35253;34.688;33.040;2023-04-08T03:45:36;101200.63;;;17.02;100.00
49377;BME280;35253;34.688;33.040;2023-04-08T03:48:02;101195.22;;;17.02;100.00
49377;BME280;35253;34.688;33.040;2023-04-08T03:50:28;101205.91;;;17.15;100.00
49377;BME280;35253;34.688;33.040;2023-04-08T03:52:54;101189.34;;;17.08;100.00
49377;BME280;35253;34.688;33.040;2023-04-08T03:55:19;101185.53;;;16.99;100.00
49377;BME280;35253;34.688;33.040;2023-04-08T03:57:45;101179.28;;;16.99;100.00
49377;BME280;35253;34.688;33.040;2023-04-08T04:00:11;101182.22;;;17.07;100.00
49377;BME280;35253;34.688;33.040;2023-04-08T04:02:37;101199.66;;;17.14;100.00
49377;BME280;35253;34.688;33.040;2023-04-08T04:05:03;101209.22;;;17.18;100.00
49377;BME280;35253;34.688;33.040;2023-04-08T04:07:29;101217.31;;;17.18;100.00
49377;BME280;35253;34.688;33.040;2023-04-08T04:09:54;101217.31;;;17.18;100.00
49377;BME280;35253;34.688;33.040;2023-04-08T04:12:22;101221.34;;;17.24;100.00
49377;BME280;35253;34.688;33.040;2023-04-08T04:14:47;101233.34;;;17.20;100.00
49377;BME280;35253;34.688;33.040;2023-04-08T04:17:13;101253.69;;;17.24;100.00
49377;BME280;35253;34.688;33.040;2023-04-08T04:19:39;101270.41;;;17.05;100.00
49377;BME280;35253;34.688;33.040;2023-04-08T04:22:05;101273.84;;;17.07;100.00
49377;BME280;35253;34.688;33.040;2023-04-08T04:24:31;101259.41;;;17.08;100.00
49377;BME280;35253;34.688;33.040;2023-04-08T04:26:56;101264.69;;;17.21;100.00
49377;BME280;35253;34.688;33.040;2023-04-08T04:29:22;101250.88;;;17.25;100.00
49377;BME280;35253;34.688;33.040;2023-04-08T04:31:48;101253.56;;;17.25;100.00
49377;BME280;35253;34.688;33.040;2023-04-08T04:34:14;101269.78;;;17.36;100.00
49377;BME280;35253;34.688;33.040;2023-04-08T04:36:39;101265.72;;;17.31;100.00
49377;BME280;35253;34.688;33.040;2023-04-08T04:39:05;101258.38;;;17.33;100.00
49377;BME280;35253;34.688;33.040;2023-04-08T04:41:31;101256.91;;;17.29;100.00
49377;BME280;35253;34.688;33.040;2023-04-08T04:43:56;101245.72;;;17.22;100.00
49377;BME280;35253;34.688;33.040;2023-04-08T04:46:22;101248.31;;;17.24;100.00
49377;BME280;35253;34.688;33.040;2023-04-08T04:48:48;101263.63;;;17.23;100.00
49377;BME280;35253;34.688;33.040;2023-04-08T04:51:13;101274.06;;;17.39;100.00
49377;BME280;35253;34.688;33.040;2023-04-08T04:53:39;101250.88;;;17.25;100.00
49377;BME280;35253;34.688;33.040;2023-04-08T04:56:05;101257.50;;;17.32;100.00
49377;BME280;35253;34.688;33.040;2023-04-08T04:58:31;101256.41;;;17.35;100.00
49377;BME280;35253;34.688;33.040;2023-04-08T05:00:57;101240.34;;;17.33;100.00
49377;BME280;35253;34.688;33.040;2023-04-08T05:03:23;101215.34;;;17.42;100.00
49377;BME280;35253;34.688;33.040;2023-04-08T05:05:53;101243.31;;;17.41;100.00
49377;BME280;35253;34.688;33.040;2023-04-08T05:08:19;101252.38;;;17.40;100.00
49377;BME280;35253;34.688;33.040;2023-04-08T05:10:45;101224.91;;;17.35;100.00
49377;BME280;35253;34.688;33.040;2023-04-08T05:13:11;101209.38;;;17.50;100.00
49377;BME280;35253;34.688;33.040;2023-04-08T05:15:37;101204.34;;;17.56;100.00
49377;BME280;35253;34.688;33.040;2023-04-08T05:18:02;101197.03;;;17.59;100.00
49377;BME280;35253;34.688;33.040;2023-04-08T05:20:28;101190.16;;;17.66;100.00
49377;BME280;35253;34.688;33.040;2023-04-08T05:22:54;101209.88;;;17.77;100.00
49377;BME280;35253;34.688;33.040;2023-04-08T05:25:20;101220.81;;;17.76;100.00
49377;BME280;35253;34.688;33.040;2023-04-08T05:27:45;101204.13;;;17.93;100.00
49377;BME280;35253;34.688;33.040;2023-04-08T05:30:11;101190.34;;;18.07;100.00
49377;BME280;35253;34.688;33.040;2023-04-08T05:32:37;101205.53;;;18.19;100.00
49377;BME280;35253;34.688;33.040;2023-04-08T05:35:03;101197.38;;;18.30;100.00
49377;BME280;35253;34.688;33.040;2023-04-08T05:37:29;101187.28;;;18.43;100.00
49377;BME280;35253;34.688;33.040;2023-04-08T05:39:55;101172.53;;;18.59;100.00
49377;BME280;35253;34.688;33.040;2023-04-08T05:42:20;101171.59;;;18.69;100.00
49377;BME280;35253;34.688;33.040;2023-04-08T05:44:46;101182.25;;;18.82;100.00
49377;BME280;35253;34.688;33.040;2023-04-08T05:47:12;101191.25;;;18.92;100.00
49377;BME280;35253;34.688;33.040;2023-04-08T05:49:39;101188.75;;;19.00;100.00
49377;BME280;35253;34.688;33.040;2023-04-08T05:52:05;101205.19;;;19.08;100.00
49377;BME280;35253;34.688;33.040;2023-04-08T05:54:31;101220.16;;;19.12;100.00
49377;BME280;35253;34.688;33.040;2023-04-08T05:56:57;101220.25;;;19.11;100.00
49377;BME280;35253;34.688;33.040;2023-04-08T05:59:23;101204.13;;;19.20;100.00
49377;BME280;35253;34.688;33.040;2023-04-08T06:01:49;101212.94;;;19.22;100.00
49377;BME280;35253;34.688;33.040;2023-04-08T06:04:14;101220.06;;;19.23;100.00
49377;BME280;35253;34.688;33.040;2023-04-08T06:06:42;101216.09;;;19.27;100.00
49377;BME280;35253;34.688;33.040;2023-04-08T06:09:08;101255.81;;;18.74;100.00
49377;BME280;35253;34.688;33.040;2023-04-08T06:11:36;101266.88;;;18.71;100.00
49377;BME280;35253;34.688;33.040;2023-04-08T06:14:02;101242.59;;;18.92;100.00
49377;BME280;35253;34.688;33.040;2023-04-08T06:16:27;101246.50;;;18.99;100.00
49377;BME280;35253;34.688;33.040;2023-04-08T06:18:53;101241.56;;;19.04;100.00
49377;BME280;35253;34.688;33.040;2023-04-08T06:21:19;101241.22;;;19.18;100.00
49377;BME280;35253;34.688;33.040;2023-04-08T06:23:45;101239.97;;;19.22;100.00
49377;BME280;35253;34.688;33.040;2023-04-08T06:26:11;101234.81;;;19.40;100.00
49377;BME280;35253;34.688;33.040;2023-04-08T06:28:37;101241.81;;;19.43;100.00
49377;BME280;35253;34.688;33.040;2023-04-08T06:31:03;101242.03;;;19.51;100.00
49377;BME280;35253;34.688;33.040;2023-04-08T06:33:29;101248.34;;;19.61;100.00
49377;BME280;35253;34.688;33.040;2023-04-08T06:36:05;101259.34;;;19.69;100.00
49377;BME280;35253;34.688;33.040;2023-04-08T06:38:32;101265.13;;;19.85;100.00
49377;BME280;35253;34.688;33.040;2023-04-08T06:41:02;101250.94;;;20.02;100.00
49377;BME280;35253;34.688;33.040;2023-04-08T06:43:29;101246.56;;;20.20;100.00
49377;BME280;35253;34.688;33.040;2023-04-08T06:45:55;101247.94;;;20.36;100.00
49377;BME280;35253;34.688;33.040;2023-04-08T06:48:21;101264.59;;;20.41;100.00
49377;BME280;35253;34.688;33.040;2023-04-08T06:50:48;101269.91;;;20.52;100.00
49377;BME280;35253;34.688;33.040;2023-04-08T06:53:14;101270.59;;;20.35;100.00
49377;BME280;35253;34.688;33.040;2023-04-08T06:55:39;101280.03;;;20.50;100.00
49377;BME280;35253;34.688;33.040;2023-04-08T06:58:05;101292.72;;;20.59;100.00
49377;BME280;35253;34.688;33.040;2023-04-08T07:00:31;101288.75;;;20.63;100.00
49377;BME280;35253;34.688;33.040;2023-04-08T07:02:57;101273.03;;;20.47;100.00
49377;BME280;35253;34.688;33.040;2023-04-08T07:08:11;101217.00;;;20.67;100.00
49377;BME280;35253;34.688;33.040;2023-04-08T07:10:37;101189.63;;;20.51;100.00
49377;BME280;35253;34.688;33.040;2023-04-08T07:13:02;101154.97;;;20.54;100.00
49377;BME280;35253;34.688;33.040;2023-04-08T07:15:28;101126.91;;;20.46;100.00
49377;BME280;35253;34.688;33.040;2023-04-08T07:17:54;101120.75;;;20.63;100.00
49377;BME280;35253;34.688;33.040;2023-04-08T07:20:22;101160.00;;;20.40;100.00
49377;BME280;35253;34.688;33.040;2023-04-08T07:22:48;101162.41;;;20.62;100.00
49377;BME280;35253;34.688;33.040;2023-04-08T07:25:14;101168.09;;;20.78;100.00
49377;BME280;35253;34.688;33.040;2023-04-08T07:27:40;101182.34;;;20.90;100.00
49377;BME280;35253;34.688;33.040;2023-04-08T07:30:06;101185.22;;;20.88;100.00
49377;BME280;35253;34.688;33.040;2023-04-08T07:32:32;101187.63;;;20.91;100.00
49377;BME280;35253;34.688;33.040;2023-04-08T07:34:59;101205.59;;;20.92;100.00
49377;BME280;35253;34.688;33.040;2023-04-08T07:37:25;101229.88;;;20.84;100.00
49377;BME280;35253;34.688;33.040;2023-04-08T07:39:51;101244.84;;;20.79;100.00
49377;BME280;35253;34.688;33.040;2023-04-08T07:42:17;101266.78;;;20.76;100.00
49377;BME280;35253;34.688;33.040;2023-04-08T07:44:44;101286.59;;;20.47;100.00
49377;BME280;35253;34.688;33.040;2023-04-08T07:47:10;101291.31;;;20.55;100.00
49377;BME280;35253;34.688;33.040;2023-04-08T07:49:36;101301.28;;;20.54;100.00
49377;BME280;35253;34.688;33.040;2023-04-08T07:52:03;101301.16;;;20.65;100.00
49377;BME280;35253;34.688;33.040;2023-04-08T07:54:32;101291.63;;;20.71;100.00
49377;BME280;35253;34.688;33.040;2023-04-08T07:57:01;101271.09;;;20.78;100.00
49377;BME280;35253;34.688;33.040;2023-04-08T07:59:27;101276.81;;;20.75;100.00
49377;BME280;35253;34.688;33.040;2023-04-08T08:01:53;101290.47;;;20.74;100.00
49377;BME280;35253;34.688;33.040;2023-04-08T08:04:19;101296.47;;;20.77;100.00
49377;BME280;35253;34.688;33.040;2023-04-08T08:06:46;101312.19;;;20.83;100.00
49377;BME280;35253;34.688;33.040;2023-04-08T08:09:12;101305.63;;;20.95;100.00
49377;BME280;35253;34.688;33.040;2023-04-08T08:11:38;101315.19;;;21.09;100.00
49377;BME280;35253;34.688;33.040;2023-04-08T08:14:03;101330.44;;;21.00;100.00
49377;BME280;35253;34.688;33.040;2023-04-08T08:16:30;101329.03;;;21.06;100.00
49377;BME280;35253;34.688;33.040;2023-04-08T08:18:59;101328.75;;;21.09;100.00
49377;BME280;35253;34.688;33.040;2023-04-08T08:21:25;101333.28;;;20.99;100.00
49377;BME280;35253;34.688;33.040;2023-04-08T08:23:52;101343.41;;;21.06;100.00
49377;BME280;35253;34.688;33.040;2023-04-08T08:26:18;101353.44;;;21.16;100.00
49377;BME280;35253;34.688;33.040;2023-04-08T08:28:45;101363.00;;;21.20;100.00
49377;BME280;35253;34.688;33.040;2023-04-08T08:31:11;101365.22;;;20.76;100.00
49377;BME280;35253;34.688;33.040;2023-04-08T08:33:36;101361.22;;;20.80;100.00
49377;BME280;35253;34.688;33.040;2023-04-08T08:36:02;101368.72;;;21.17;100.00
49377;BME280;35253;34.688;33.040;2023-04-08T08:38:29;101362.75;;;21.23;100.00
49377;BME280;35253;34.688;33.040;2023-04-08T08:40:56;101373.00;;;21.29;100.00
49377;BME280;35253;34.688;33.040;2023-04-08T08:43:23;101371.88;;;21.31;100.00
49377;BME280;35253;34.688;33.040;2023-04-08T08:45:49;101366.59;;;21.30;100.00
49377;BME280;35253;34.688;33.040;2023-04-08T08:48:15;101364.97;;;20.79;100.00
49377;BME280;35253;34.688;33.040;2023-04-08T08:50:42;101366.81;;;20.08;100.00
49377;BME280;35253;34.688;33.040;2023-04-08T08:53:07;101370.16;;;20.52;100.00
49377;BME280;35253;34.688;33.040;2023-04-08T08:55:33;101369.78;;;20.76;100.00
49377;BME280;35253;34.688;33.040;2023-04-08T08:57:59;101365.50;;;20.73;100.00
49377;BME280;35253;34.688;33.040;2023-04-08T09:00:40;101372.25;;;20.88;100.00
49377;BME280;35253;34.688;33.040;2023-04-08T09:03:17;101370.38;;;20.98;100.00
49377;BME280;35253;34.688;33.040;2023-04-08T09:05:47;101347.56;;;21.01;100.00
49377;BME280;35253;34.688;33.040;2023-04-08T09:08:32;101351.41;;;20.89;100.00
49377;BME280;35253;34.688;33.040;2023-04-08T09:11:15;101333.59;;;21.05;100.00
49377;BME280;35253;34.688;33.040;2023-04-08T09:13:42;101311.47;;;21.10;100.00
49377;BME280;35253;34.688;33.040;2023-04-08T09:16:11;101296.81;;;21.12;100.00
49377;BME280;35253;34.688;33.040;2023-04-08T09:18:38;101291.38;;;21.12;100.00
49377;BME280;35253;34.688;33.040;2023-04-08T09:21:05;101278.25;;;21.18;96.20
49377;BME280;35253;34.688;33.040;2023-04-08T09:23:47;101281.09;;;21.26;96.88
49377;BME280;35253;34.688;33.040;2023-04-08T09:26:18;101276.22;;;21.39;99.08
49377;BME280;35253;34.688;33.040;2023-04-08T09:29:06;101255.34;;;21.49;98.51
49377;BME280;35253;34.688;33.040;2023-04-08T09:31:34;101262.06;;;21.45;98.47
49377;BME280;35253;34.688;33.040;2023-04-08T09:34:13;101244.75;;;21.46;97.26
49377;BME280;35253;34.688;33.040;2023-04-08T09:36:45;101240.06;;;21.48;94.82
49377;BME280;35253;34.688;33.040;2023-04-08T09:39:12;101221.66;;;21.42;94.75
49377;BME280;35253;34.688;33.040;2023-04-08T09:41:38;101204.56;;;21.32;96.50
49377;BME280;35253;34.688;33.040;2023-04-08T09:44:07;101185.09;;;21.46;97.98
49377;BME280;35253;34.688;33.040;2023-04-08T09:52:12;101181.91;;;21.13;100.00
49377;BME280;35253;34.688;33.040;2023-04-08T09:54:54;101163.88;;;21.32;100.00
49377;BME280;35253;34.688;33.040;2023-04-08T09:57:39;101185.91;;;21.56;100.00
49377;BME280;35253;34.688;33.040;2023-04-08T10:00:13;101218.69;;;21.72;100.00
49377;BME280;35253;34.688;33.040;2023-04-08T10:05:12;101223.16;;;22.00;100.00
49377;BME280;35253;34.688;33.040;2023-04-08T10:07:40;101237.47;;;22.02;100.00
49377;BME280;35253;34.688;33.040;2023-04-08T10:10:07;101251.50;;;21.98;100.00
49377;BME280;35253;34.688;33.040;2023-04-08T10:12:36;101259.09;;;21.85;100.00
49377;BME280;35253;34.688;33.040;2023-04-08T10:15:28;101253.97;;;21.72;100.00
49377;BME280;35253;34.688;33.040;2023-04-08T10:20:46;101298.75;;;21.49;100.00
49377;BME280;35253;34.688;33.040;2023-04-08T10:23:17;101313.06;;;21.32;100.00
49377;BME280;35253;34.688;33.040;2023-04-08T10:25:46;101309.94;;;21.27;100.00
49377;BME280;35253;34.688;33.040;2023-04-08T10:30:52;101301.19;;;20.94;100.00
49377;BME280;35253;34.688;33.040;2023-04-08T10:33:31;101309.94;;;21.17;100.00
49377;BME280;35253;34.688;33.040;2023-04-08T10:38:38;101243.97;;;21.07;100.00
49377;BME280;35253;34.688;33.040;2023-04-08T10:41:06;101275.38;;;20.90;100.00
49377;BME280;35253;34.688;33.040;2023-04-08T10:43:33;101280.22;;;21.16;100.00
49377;BME280;35253;34.688;33.040;2023-04-08T10:45:59;101275.41;;;21.19;100.00
49377;BME280;35253;34.688;33.040;2023-04-08T10:48:25;101271.50;;;21.02;100.00
49377;BME280;35253;34.688;33.040;2023-04-08T10:50:58;101285.91;;;20.93;100.00
49377;BME280;35253;34.688;33.040;2023-04-08T10:53:31;101323.44;;;21.07;100.00
49377;BME280;35253;34.688;33.040;2023-04-08T10:56:11;101355.13;;;21.07;100.00
49377;BME280;35253;34.688;33.040;2023-04-08T10:58:52;101334.75;;;21.12;100.00
49377;BME280;35253;34.688;33.040;2023-04-08T11:01:19;101329.03;;;21.35;100.00
49377;BME280;35253;34.688;33.040;2023-04-08T11:03:45;101340.31;;;21.40;100.00
49377;BME280;35253;34.688;33.040;2023-04-08T11:06:11;101322.47;;;21.37;100.00
49377;BME280;35253;34.688;33.040;2023-04-08T11:08:37;101308.16;;;21.54;100.00
49377;BME280;35253;34.688;33.040;2023-04-08T11:11:06;101311.19;;;21.42;100.00
49377;BME280;35253;34.688;33.040;2023-04-08T11:13:40;101292.72;;;21.55;100.00
49377;BME280;35253;34.688;33.040;2023-04-08T11:16:07;101305.31;;;21.56;100.00
49377;BME280;35253;34.688;33.040;2023-04-08T11:18:34;101303.00;;;21.71;100.00
49377;BME280;35253;34.688;33.040;2023-04-08T11:21:01;101307.69;;;21.69;100.00
49377;BME280;35253;34.688;33.040;2023-04-08T11:23:27;101302.13;;;21.80;100.00
49377;BME280;35253;34.688;33.040;2023-04-08T11:25:53;101299.53;;;21.78;100.00
49377;BME280;35253;34.688;33.040;2023-04-08T11:28:20;101310.06;;;22.00;100.00
49377;BME280;35253;34.688;33.040;2023-04-08T11:30:46;101316.94;;;21.85;100.00
49377;BME280;35253;34.688;33.040;2023-04-08T11:33:13;101327.97;;;21.93;100.00
49377;BME280;35253;34.688;33.040;2023-04-08T11:35:40;101328.66;;;21.95;100.00
49377;BME280;35253;34.688;33.040;2023-04-08T11:38:07;101331.94;;;21.99;100.00
49377;BME280;35253;34.688;33.040;2023-04-08T11:40:34;101315.72;;;21.70;100.00
49377;BME280;35253;34.688;33.040;2023-04-08T11:43:11;101316.38;;;21.82;100.00
49377;BME280;35253;34.688;33.040;2023-04-08T11:45:41;101303.53;;;21.74;100.00
49377;BME280;35253;34.688;33.040;2023-04-08T11:48:11;101305.91;;;21.50;100.00
49377;BME280;35253;34.688;33.040;2023-04-08T11:50:38;101294.16;;;21.59;100.00
49377;BME280;35253;34.688;33.040;2023-04-08T11:53:24;101294.41;;;21.75;100.00
49377;BME280;35253;34.688;33.040;2023-04-08T11:55:50;101285.84;;;21.70;100.00
49377;BME280;35253;34.688;33.040;2023-04-08T11:58:16;101288.25;;;21.73;100.00
49377;BME280;35253;34.688;33.040;2023-04-08T12:00:42;101276.81;;;21.79;100.00
49377;BME280;35253;34.688;33.040;2023-04-08T12:03:08;101280.09;;;21.83;100.00
49377;BME280;35253;34.688;33.040;2023-04-08T12:05:34;101265.69;;;21.73;100.00
49377;BME280;35253;34.688;33.040;2023-04-08T12:08:00;101259.81;;;21.77;100.00
49377;BME280;35253;34.688;33.040;2023-04-08T12:10:26;101264.50;;;21.94;100.00
49377;BME280;35253;34.688;33.040;2023-04-08T12:12:52;101266.31;;;22.03;100.00
49377;BME280;35253;34.688;33.040;2023-04-08T12:15:18;101261.38;;;22.17;100.00
49377;BME280;35253;34.688;33.040;2023-04-08T12:17:44;101243.25;;;22.35;100.00
49377;BME280;35253;34.688;33.040;2023-04-08T12:20:12;101222.91;;;22.21;100.00
49377;BME280;35253;34.688;33.040;2023-04-08T12:22:38;101222.03;;;22.21;100.00
49377;BME280;35253;34.688;33.040;2023-04-08T12:25:05;101217.00;;;22.26;100.00
49377;BME280;35253;34.688;33.040;2023-04-08T12:27:31;101210.72;;;22.25;100.00
49377;BME280;35253;34.688;33.040;2023-04-08T12:29:58;101210.81;;;22.16;100.00
49377;BME280;35253;34.688;33.040;2023-04-08T12:32:24;101193.94;;;22.12;100.00
49377;BME280;35253;34.688;33.040;2023-04-08T12:34:50;101193.69;;;22.06;100.00
49377;BME280;35253;34.688;33.040;2023-04-08T12:37:16;101181.84;;;22.07;100.00
49377;BME280;35253;34.688;33.040;2023-04-08T12:39:42;101167.78;;;21.93;100.00
49377;BME280;35253;34.688;33.040;2023-04-08T12:42:07;101169.44;;;21.67;100.00
49377;BME280;35253;34.688;33.040;2023-04-08T12:44:33;101178.72;;;21.65;100.00
49377;BME280;35253;34.688;33.040;2023-04-08T12:46:59;101170.34;;;21.58;100.00
49377;BME280;35253;34.688;33.040;2023-04-08T12:49:25;101175.03;;;21.66;100.00
49377;BME280;35253;34.688;33.040;2023-04-08T12:51:51;101184.91;;;21.57;100.00